Gaylordsville, Connecticut
Current Conditions -  °F | °C
As of 6:53 PM on Wednesday 22 Oct 2014 (Local Time) from KDXR Reporting Station
Light Rain Light Rain  
Wind Chill: 52°   Ceiling: 1800
Heat Index: 52°   Visibility: 10mi
Dew Point: 45°   Wind: 18mph
Humidity: 77%   Direction: 10°N
Pressure: 29.85"   Gusts: 24mph
Location:  41.65°N, 73.48°W
Report Text: KDXR 222253Z 01016G21KT 10SM -RA BKN018 OVC025 11/07 A2985 RMK AO2 RAB34 SLP106 P0000 T01110072
Loading
Personal Weather Stations






























Interactive Weather Map
Tropical Storm Tracking
New forecast layout! Learn more

10-Day Weather Forecast

Advertisements
Track Severe Weather on mobile